createdAt,value
2019-02-28T00:00:32.553Z,1008.58
2019-02-28T00:01:38.070Z,1008.62
2019-02-28T00:02:43.574Z,1008.58
2019-02-28T00:03:49.079Z,1008.55
2019-02-28T00:04:54.591Z,1008.61
2019-02-28T00:06:00.109Z,1008.60
2019-02-28T00:07:05.609Z,1008.58
2019-02-28T00:08:11.123Z,1008.58
2019-02-28T00:09:16.630Z,1008.58
2019-02-28T00:10:22.144Z,1008.54
2019-02-28T00:11:27.645Z,1008.56
2019-02-28T00:12:33.155Z,1008.54
2019-02-28T00:13:38.661Z,1008.52
2019-02-28T00:14:45.552Z,1008.54
2019-02-28T00:15:49.690Z,1008.57
2019-02-28T00:16:55.200Z,1008.55
2019-02-28T00:18:00.713Z,1008.59
2019-02-28T00:19:06.215Z,1008.59
2019-02-28T00:20:11.716Z,1008.56
2019-02-28T00:21:17.226Z,1008.57
2019-02-28T00:22:22.733Z,1008.53
2019-02-28T00:23:28.246Z,1008.52
2019-02-28T00:24:33.763Z,1008.52
2019-02-28T00:25:39.259Z,1008.52
2019-02-28T00:26:47.666Z,1008.49
2019-02-28T00:27:52.620Z,1008.49
2019-02-28T00:28:57.059Z,1008.48
2019-02-28T00:30:01.296Z,1008.47
2019-02-28T00:31:06.815Z,1008.49
2019-02-28T00:32:12.315Z,1008.45
2019-02-28T00:33:17.837Z,1008.47
2019-02-28T00:34:23.334Z,1008.43
2019-02-28T00:35:28.846Z,1008.39
2019-02-28T00:36:34.354Z,1008.42
2019-02-28T00:37:39.864Z,1008.40
2019-02-28T00:38:45.383Z,1008.38
2019-02-28T00:39:50.881Z,1008.36
2019-02-28T00:40:56.388Z,1008.39
2019-02-28T00:42:01.911Z,1008.39
2019-02-28T00:43:07.411Z,1008.37
2019-02-28T00:44:12.917Z,1008.39
2019-02-28T00:45:18.426Z,1008.39
2019-02-28T00:46:23.953Z,1008.37
2019-02-28T00:47:29.446Z,1008.39
2019-02-28T00:48:34.955Z,1008.38
2019-02-28T00:49:40.474Z,1008.31
2019-02-28T00:50:45.970Z,1008.37
2019-02-28T00:51:51.482Z,1008.32
2019-02-28T00:52:56.989Z,1008.32
2019-02-28T00:54:02.495Z,1008.29
2019-02-28T00:55:08.007Z,1008.28
2019-02-28T00:56:13.518Z,1008.29
2019-02-28T00:57:19.026Z,1008.28
2019-02-28T00:58:28.666Z,1008.25
2019-02-28T00:59:31.728Z,1008.29
2019-02-28T01:00:37.152Z,1008.29
2019-02-28T01:01:43.049Z,1008.27
2019-02-28T01:02:52.132Z,1008.26
2019-02-28T01:03:52.078Z,1008.24
2019-02-28T01:04:57.588Z,1008.25
2019-02-28T01:06:03.101Z,1008.23
2019-02-28T01:07:08.606Z,1008.16
2019-02-28T01:08:14.151Z,1008.15
2019-02-28T01:09:19.631Z,1008.15
2019-02-28T01:10:25.130Z,1008.11
2019-02-28T01:11:30.642Z,1008.15
2019-02-28T01:12:36.153Z,1008.11
2019-02-28T01:13:41.660Z,1008.07
2019-02-28T01:14:47.170Z,1008.03
2019-02-28T01:15:52.678Z,1008.02
2019-02-28T01:16:58.188Z,1008.02
2019-02-28T01:18:03.695Z,1007.99
2019-02-28T01:19:10.232Z,1007.95
2019-02-28T01:20:16.263Z,1007.97
2019-02-28T01:21:23.650Z,1007.91
2019-02-28T01:22:26.715Z,1007.92
2019-02-28T01:23:31.243Z,1007.89
2019-02-28T01:24:36.749Z,1007.85
2019-02-28T01:25:42.262Z,1007.87
2019-02-28T01:26:47.762Z,1007.86
2019-02-28T01:27:53.279Z,1007.86
2019-02-28T01:29:02.049Z,1007.84
2019-02-28T01:30:06.726Z,1007.83
2019-02-28T01:31:11.676Z,1007.81
2019-02-28T01:32:16.280Z,1007.82
2019-02-28T01:33:24.651Z,1007.76
2019-02-28T01:34:29.054Z,1007.77
2019-02-28T01:35:31.836Z,1007.76
2019-02-28T01:36:37.349Z,1007.73
2019-02-28T01:37:42.864Z,1007.74
2019-02-28T01:38:48.363Z,1007.72
2019-02-28T01:39:53.873Z,1007.72
2019-02-28T01:40:59.398Z,1007.66
2019-02-28T01:42:04.891Z,1007.66
2019-02-28T01:43:10.400Z,1007.67
2019-02-28T01:44:15.911Z,1007.68
2019-02-28T01:45:21.419Z,1007.67
2019-02-28T01:46:26.926Z,1007.66
2019-02-28T01:47:32.436Z,1007.65
2019-02-28T01:48:37.947Z,1007.64
2019-02-28T01:49:43.453Z,1007.60
2019-02-28T01:50:48.961Z,1007.63
2019-02-28T01:51:54.469Z,1007.59
2019-02-28T01:52:59.979Z,1007.62
2019-02-28T01:54:05.493Z,1007.56
2019-02-28T01:55:10.998Z,1007.53
2019-02-28T01:56:16.506Z,1007.53
2019-02-28T01:57:22.013Z,1007.51
2019-02-28T01:58:27.523Z,1007.47
2019-02-28T01:59:33.038Z,1007.49
2019-02-28T02:00:38.539Z,1007.41
2019-02-28T02:01:44.049Z,1007.44
2019-02-28T02:02:49.557Z,1007.41
2019-02-28T02:03:55.068Z,1007.41
2019-02-28T02:05:00.582Z,1007.42
2019-02-28T02:06:06.081Z,1007.41
2019-02-28T02:07:11.596Z,1007.42
2019-02-28T02:08:17.102Z,1007.37
2019-02-28T02:09:22.614Z,1007.36
2019-02-28T02:10:28.122Z,1007.35
2019-02-28T02:11:33.629Z,1007.35
2019-02-28T02:12:39.135Z,1007.34
2019-02-28T02:13:44.651Z,1007.39
2019-02-28T02:14:50.164Z,1007.35
2019-02-28T02:15:55.660Z,1007.29
2019-02-28T02:17:01.908Z,1007.26
2019-02-28T02:18:09.441Z,1007.22
2019-02-28T02:19:17.571Z,1007.24
2019-02-28T02:20:17.709Z,1007.19
2019-02-28T02:21:23.209Z,1007.19
2019-02-28T02:22:28.715Z,1007.20
2019-02-28T02:23:34.223Z,1007.18
2019-02-28T02:24:39.738Z,1007.20
2019-02-28T02:25:45.242Z,1007.18
2019-02-28T02:26:50.750Z,1007.17
2019-02-28T02:27:56.259Z,1007.12
2019-02-28T02:29:01.957Z,1007.15
2019-02-28T02:30:13.284Z,1007.12
2019-02-28T02:31:12.783Z,1007.11
2019-02-28T02:32:18.297Z,1007.09
2019-02-28T02:33:23.804Z,1007.08
2019-02-28T02:34:29.611Z,1007.06
2019-02-28T02:35:34.826Z,1007.05
2019-02-28T02:36:40.329Z,1007.12
2019-02-28T02:37:45.846Z,1007.06
2019-02-28T02:38:51.350Z,1007.03
2019-02-28T02:39:56.855Z,1007.02
2019-02-28T02:41:04.807Z,1007.03
2019-02-28T02:42:11.377Z,1007.00
2019-02-28T02:43:13.378Z,1007.01
2019-02-28T02:44:18.896Z,1006.96
2019-02-28T02:45:24.399Z,1006.93
2019-02-28T02:46:29.912Z,1006.95
2019-02-28T02:47:35.415Z,1006.92
2019-02-28T02:48:42.382Z,1006.90
2019-02-28T02:49:46.436Z,1006.88
2019-02-28T02:50:51.953Z,1006.86
2019-02-28T02:51:57.456Z,1006.82
2019-02-28T02:53:05.424Z,1006.80
2019-02-28T02:54:08.470Z,1006.82
2019-02-28T02:55:13.978Z,1006.75
2019-02-28T02:56:19.484Z,1006.78
2019-02-28T02:57:24.992Z,1006.78
2019-02-28T02:58:30.503Z,1006.77
2019-02-28T02:59:39.076Z,1006.71
2019-02-28T03:00:41.525Z,1006.70
2019-02-28T03:01:47.053Z,1006.66
2019-02-28T03:02:52.537Z,1006.65
2019-02-28T03:03:58.050Z,1006.59
2019-02-28T03:05:03.560Z,1006.64
2019-02-28T03:06:13.973Z,1006.58
2019-02-28T03:07:23.342Z,1006.61
2019-02-28T03:08:20.087Z,1006.57
2019-02-28T03:09:25.608Z,1006.61
2019-02-28T03:10:31.106Z,1006.55
2019-02-28T03:11:36.618Z,1006.61
2019-02-28T03:12:42.125Z,1006.61
2019-02-28T03:13:47.628Z,1006.59
2019-02-28T03:14:53.139Z,1006.59
2019-02-28T03:15:59.507Z,1006.63
2019-02-28T03:17:09.676Z,1006.57
2019-02-28T03:18:09.667Z,1006.56
2019-02-28T03:19:15.174Z,1006.53
2019-02-28T03:20:20.682Z,1006.58
2019-02-28T03:21:26.191Z,1006.60
2019-02-28T03:22:31.703Z,1006.55
2019-02-28T03:23:40.168Z,1006.52
2019-02-28T03:24:42.725Z,1006.53
2019-02-28T03:25:48.234Z,1006.53
2019-02-28T03:26:53.737Z,1006.54
2019-02-28T03:27:59.251Z,1006.52
2019-02-28T03:29:07.894Z,1006.47
2019-02-28T03:30:10.281Z,1006.51
2019-02-28T03:31:16.067Z,1006.47
2019-02-28T03:32:21.284Z,1006.52
2019-02-28T03:33:28.756Z,1006.51
2019-02-28T03:34:32.307Z,1006.49
2019-02-28T03:35:43.403Z,1006.53
2019-02-28T03:36:43.326Z,1006.51
2019-02-28T03:37:48.834Z,1006.50
2019-02-28T03:38:54.344Z,1006.50
2019-02-28T03:40:04.387Z,1006.49
2019-02-28T03:41:05.358Z,1006.54
2019-02-28T03:42:10.875Z,1006.52
2019-02-28T03:43:16.386Z,1006.52
2019-02-28T03:44:22.004Z,1006.52
2019-02-28T03:45:33.907Z,1006.54
2019-02-28T03:46:32.915Z,1006.51
2019-02-28T03:47:38.426Z,1006.51
2019-02-28T03:48:43.926Z,1006.52
2019-02-28T03:49:50.294Z,1006.51
2019-02-28T03:50:55.520Z,1006.46
2019-02-28T03:52:05.423Z,1006.49
2019-02-28T03:53:05.965Z,1006.51
2019-02-28T03:54:11.472Z,1006.47
2019-02-28T03:55:16.983Z,1006.48
2019-02-28T03:56:22.492Z,1006.51
2019-02-28T03:57:29.329Z,1006.48
2019-02-28T03:58:41.800Z,1006.44
2019-02-28T03:59:39.029Z,1006.45
2019-02-28T04:00:44.538Z,1006.45
2019-02-28T04:01:50.038Z,1006.42
2019-02-28T04:02:58.466Z,1006.42
2019-02-28T04:04:01.055Z,1006.45
2019-02-28T04:05:06.564Z,1006.46
2019-02-28T04:06:12.080Z,1006.48
2019-02-28T04:07:17.584Z,1006.41
2019-02-28T04:08:29.373Z,1006.47
2019-02-28T04:09:28.653Z,1006.43
2019-02-28T04:10:34.114Z,1006.47
2019-02-28T04:11:39.621Z,1006.43
2019-02-28T04:12:46.914Z,1006.47
2019-02-28T04:13:52.446Z,1006.50
2019-02-28T04:14:56.153Z,1006.42
2019-02-28T04:16:08.631Z,1006.45
2019-02-28T04:17:07.172Z,1006.47
2019-02-28T04:18:12.680Z,1006.42
2019-02-28T04:19:22.616Z,1006.44
2019-02-28T04:20:23.698Z,1006.41
2019-02-28T04:21:29.211Z,1006.37
2019-02-28T04:22:34.725Z,1006.41
2019-02-28T04:23:40.229Z,1006.39
2019-02-28T04:24:47.539Z,1006.34
2019-02-28T04:25:51.243Z,1006.33
2019-02-28T04:26:56.756Z,1006.31
2019-02-28T04:28:02.270Z,1006.26
2019-02-28T04:29:07.774Z,1006.28
2019-02-28T04:30:13.285Z,1006.29
2019-02-28T04:31:20.138Z,1006.23
2019-02-28T04:32:27.591Z,1006.19
2019-02-28T04:33:29.811Z,1006.22
2019-02-28T04:34:35.334Z,1006.23
2019-02-28T04:35:40.833Z,1006.19
2019-02-28T04:36:46.338Z,1006.18
2019-02-28T04:37:51.854Z,1006.16
2019-02-28T04:38:57.377Z,1006.17
2019-02-28T04:40:02.868Z,1006.18
2019-02-28T04:41:08.380Z,1006.21
2019-02-28T04:42:13.891Z,1006.14
2019-02-28T04:43:19.398Z,1006.22
2019-02-28T04:44:24.907Z,1006.24
2019-02-28T04:45:30.413Z,1006.21
2019-02-28T04:46:35.923Z,1006.26
2019-02-28T04:47:41.755Z,1006.25
2019-02-28T04:48:48.442Z,1006.23
2019-02-28T04:49:53.527Z,1006.22
2019-02-28T04:50:57.967Z,1006.24
2019-02-28T04:52:03.476Z,1006.22
2019-02-28T04:53:08.990Z,1006.22
2019-02-28T04:54:14.491Z,1006.22
2019-02-28T04:55:20.003Z,1006.17
2019-02-28T04:56:25.513Z,1006.16
2019-02-28T04:57:31.020Z,1006.18
2019-02-28T04:58:36.533Z,1006.20
2019-02-28T04:59:42.057Z,1006.20
2019-02-28T05:00:47.549Z,1006.19
2019-02-28T05:01:53.056Z,1006.23
2019-02-28T05:02:58.570Z,1006.21
2019-02-28T05:04:04.073Z,1006.18
2019-02-28T05:05:12.605Z,1006.19
2019-02-28T05:06:15.098Z,1006.20
2019-02-28T05:07:20.603Z,1006.13
2019-02-28T05:08:26.111Z,1006.17
2019-02-28T05:09:31.619Z,1006.14
2019-02-28T05:10:37.129Z,1006.14
2019-02-28T05:11:42.644Z,1006.16
2019-02-28T05:12:48.154Z,1006.16
2019-02-28T05:13:53.660Z,1006.17
2019-02-28T05:15:02.159Z,1006.15
2019-02-28T05:16:04.680Z,1006.17
2019-02-28T05:17:10.189Z,1006.20
2019-02-28T05:18:15.698Z,1006.18
2019-02-28T05:19:21.212Z,1006.17
2019-02-28T05:20:26.715Z,1006.18
2019-02-28T05:21:32.223Z,1006.20
2019-02-28T05:22:37.735Z,1006.25
2019-02-28T05:23:43.243Z,1006.28
2019-02-28T05:24:48.756Z,1006.29
2019-02-28T05:25:54.263Z,1006.31
2019-02-28T05:27:00.106Z,1006.32
2019-02-28T05:28:06.583Z,1006.30
2019-02-28T05:29:11.933Z,1006.30
2019-02-28T05:30:19.424Z,1006.29
2019-02-28T05:31:24.173Z,1006.31
2019-02-28T05:32:27.319Z,1006.27
2019-02-28T05:33:32.831Z,1006.33
2019-02-28T05:34:38.339Z,1006.34
2019-02-28T05:35:43.852Z,1006.32
2019-02-28T05:36:49.354Z,1006.32
2019-02-28T05:37:54.869Z,1006.27
2019-02-28T05:39:00.379Z,1006.32
2019-02-28T05:40:06.791Z,1006.29
2019-02-28T05:41:12.125Z,1006.29
2019-02-28T05:42:16.914Z,1006.27
2019-02-28T05:43:22.412Z,1006.25
2019-02-28T05:44:27.929Z,1006.23
2019-02-28T05:45:33.438Z,1006.22
2019-02-28T05:46:38.941Z,1006.19
2019-02-28T05:47:46.681Z,1006.22
2019-02-28T05:48:49.963Z,1006.18
2019-02-28T05:49:55.468Z,1006.16
2019-02-28T05:51:00.976Z,1006.14
2019-02-28T05:52:06.490Z,1006.12
2019-02-28T05:53:12.009Z,1006.19
2019-02-28T05:54:17.531Z,1006.19
2019-02-28T05:55:25.514Z,1006.20
2019-02-28T05:56:32.771Z,1006.18
2019-02-28T05:57:34.039Z,1006.18
2019-02-28T05:58:39.552Z,1006.19
2019-02-28T05:59:45.053Z,1006.21
2019-02-28T06:00:50.570Z,1006.21
2019-02-28T06:01:56.080Z,1006.19
2019-02-28T06:03:02.643Z,1006.25
2019-02-28T06:04:07.094Z,1006.27
2019-02-28T06:05:12.917Z,1006.31
2019-02-28T06:06:20.209Z,1006.35
2019-02-28T06:07:25.967Z,1006.28
2019-02-28T06:08:29.123Z,1006.27
2019-02-28T06:09:34.646Z,1006.27
2019-02-28T06:10:40.170Z,1006.25
2019-02-28T06:11:45.668Z,1006.22
2019-02-28T06:12:51.164Z,1006.24
2019-02-28T06:13:56.677Z,1006.28
2019-02-28T06:15:03.524Z,1006.25
2019-02-28T06:16:11.309Z,1006.25
2019-02-28T06:17:13.199Z,1006.23
2019-02-28T06:18:18.714Z,1006.18
2019-02-28T06:19:24.223Z,1006.27
2019-02-28T06:20:29.729Z,1006.21
2019-02-28T06:21:35.242Z,1006.24
2019-02-28T06:22:40.755Z,1006.24
2019-02-28T06:23:46.257Z,1006.21
2019-02-28T06:24:51.772Z,1006.22
2019-02-28T06:25:59.319Z,1006.19
2019-02-28T06:27:03.677Z,1006.23
2019-02-28T06:28:08.294Z,1006.23
2019-02-28T06:29:13.809Z,1006.20
2019-02-28T06:30:19.321Z,1006.21
2019-02-28T06:31:24.826Z,1006.18
2019-02-28T06:32:30.338Z,1006.18
2019-02-28T06:33:35.844Z,1006.17
2019-02-28T06:34:42.255Z,1006.16
2019-02-28T06:35:49.590Z,1006.17
2019-02-28T06:36:52.371Z,1006.15
2019-02-28T06:37:57.877Z,1006.16
2019-02-28T06:39:03.385Z,1006.15
2019-02-28T06:40:08.897Z,1006.16
2019-02-28T06:41:14.423Z,1006.14
2019-02-28T06:42:19.913Z,1006.15
2019-02-28T06:43:25.424Z,1006.11
2019-02-28T06:44:30.935Z,1006.14
2019-02-28T06:45:37.715Z,1006.10
2019-02-28T06:46:41.953Z,1006.08
2019-02-28T06:47:49.763Z,1006.07
2019-02-28T06:48:52.972Z,1006.07
2019-02-28T06:49:58.480Z,1006.09
2019-02-28T06:51:03.991Z,1006.10
2019-02-28T06:52:09.497Z,1006.10
2019-02-28T06:53:15.011Z,1006.16
2019-02-28T06:54:20.530Z,1006.18
2019-02-28T06:55:26.029Z,1006.15
2019-02-28T06:56:31.538Z,1006.20
2019-02-28T06:57:37.041Z,1006.14
2019-02-28T06:58:42.554Z,1006.19
2019-02-28T06:59:48.065Z,1006.13
2019-02-28T07:00:53.573Z,1006.18
2019-02-28T07:01:59.083Z,1006.18
2019-02-28T07:03:04.602Z,1006.19
2019-02-28T07:04:11.450Z,1006.19
2019-02-28T07:05:15.614Z,1006.21
2019-02-28T07:06:21.121Z,1006.18
2019-02-28T07:07:26.630Z,1006.19
2019-02-28T07:08:32.138Z,1006.17
2019-02-28T07:09:37.650Z,1006.23
2019-02-28T07:10:44.892Z,1006.24
2019-02-28T07:11:51.305Z,1006.27
2019-02-28T07:12:54.178Z,1006.28
2019-02-28T07:13:59.686Z,1006.33
2019-02-28T07:15:05.197Z,1006.26
2019-02-28T07:16:10.702Z,1006.30
2019-02-28T07:17:16.224Z,1006.26
2019-02-28T07:18:21.719Z,1006.23
2019-02-28T07:19:27.231Z,1006.20
2019-02-28T07:20:35.107Z,1006.21
2019-02-28T07:21:42.875Z,1006.17
2019-02-28T07:22:43.795Z,1006.19
2019-02-28T07:23:49.276Z,1006.16
2019-02-28T07:24:54.778Z,1006.17
2019-02-28T07:26:00.285Z,1006.17
2019-02-28T07:27:05.795Z,1006.17
2019-02-28T07:28:11.305Z,1006.18
2019-02-28T07:29:16.817Z,1006.14
2019-02-28T07:30:22.327Z,1006.13
2019-02-28T07:31:27.841Z,1006.16
2019-02-28T07:32:34.304Z,1006.12
2019-02-28T07:33:41.324Z,1006.13
2019-02-28T07:34:44.360Z,1006.08
2019-02-28T07:35:49.876Z,1006.04
2019-02-28T07:36:55.387Z,1005.96
2019-02-28T07:38:00.891Z,1005.98
2019-02-28T07:39:06.416Z,1005.96
2019-02-28T07:40:15.589Z,1005.93
2019-02-28T07:41:17.420Z,1005.95
2019-02-28T07:42:22.923Z,1005.94
2019-02-28T07:43:28.433Z,1005.95
2019-02-28T07:44:33.946Z,1005.94
2019-02-28T07:45:39.454Z,1005.92
2019-02-28T07:46:44.962Z,1005.93
2019-02-28T07:47:52.719Z,1005.92
2019-02-28T07:48:55.983Z,1005.94
2019-02-28T07:50:01.493Z,1005.93
2019-02-28T07:51:07.000Z,1005.92
2019-02-28T07:52:12.514Z,1005.94
2019-02-28T07:53:18.024Z,1005.94
2019-02-28T07:54:23.537Z,1005.91
2019-02-28T07:55:30.481Z,1005.93
2019-02-28T07:56:34.554Z,1005.89
2019-02-28T07:57:40.069Z,1005.89
2019-02-28T07:58:45.695Z,1005.86
2019-02-28T07:59:51.088Z,1005.90
2019-02-28T08:00:56.596Z,1005.87
2019-02-28T08:02:03.222Z,1005.87
2019-02-28T08:03:07.606Z,1005.84
2019-02-28T08:04:18.056Z,1005.79
2019-02-28T08:05:18.642Z,1005.77
2019-02-28T08:06:24.140Z,1005.80
2019-02-28T08:07:29.645Z,1005.75
2019-02-28T08:08:35.154Z,1005.73
2019-02-28T08:09:41.532Z,1005.74
2019-02-28T08:10:47.971Z,1005.68
2019-02-28T08:11:55.511Z,1005.69
2019-02-28T08:12:57.192Z,1005.72
2019-02-28T08:14:02.705Z,1005.73
2019-02-28T08:15:08.229Z,1005.76
2019-02-28T08:16:13.725Z,1005.71
2019-02-28T08:17:19.234Z,1005.71
2019-02-28T08:18:24.749Z,1005.68
2019-02-28T08:19:30.330Z,1005.65
2019-02-28T08:20:35.761Z,1005.64
2019-02-28T08:21:47.603Z,1005.62
2019-02-28T08:22:46.787Z,1005.67
2019-02-28T08:23:52.294Z,1005.72
2019-02-28T08:24:57.803Z,1005.77
2019-02-28T08:26:03.327Z,1005.80
2019-02-28T08:27:08.821Z,1005.79
2019-02-28T08:28:14.329Z,1005.82
2019-02-28T08:29:19.843Z,1005.84
2019-02-28T08:30:25.353Z,1005.86
2019-02-28T08:31:31.994Z,1005.85
2019-02-28T08:32:36.379Z,1005.85
2019-02-28T08:33:41.880Z,1005.80
2019-02-28T08:34:47.402Z,1005.76
2019-02-28T08:35:52.910Z,1005.73
2019-02-28T08:36:58.408Z,1005.73
2019-02-28T08:38:03.921Z,1005.69
2019-02-28T08:39:10.069Z,1005.71
2019-02-28T08:40:15.602Z,1005.68
2019-02-28T08:41:22.466Z,1005.65
2019-02-28T08:42:25.963Z,1005.61
2019-02-28T08:43:31.481Z,1005.67
2019-02-28T08:44:36.985Z,1005.65
2019-02-28T08:45:42.501Z,1005.64
2019-02-28T08:46:48.003Z,1005.65
2019-02-28T08:47:56.608Z,1005.66
2019-02-28T08:48:59.019Z,1005.69
2019-02-28T08:50:04.535Z,1005.72
2019-02-28T08:51:10.035Z,1005.73
2019-02-28T08:52:15.559Z,1005.76
2019-02-28T08:53:21.068Z,1005.71
2019-02-28T08:54:27.546Z,1005.77
2019-02-28T08:55:32.090Z,1005.78
2019-02-28T08:56:37.597Z,1005.76
2019-02-28T08:57:43.110Z,1005.75
2019-02-28T08:58:48.626Z,1005.78
2019-02-28T08:59:56.251Z,1005.78
2019-02-28T09:00:59.647Z,1005.77
2019-02-28T09:02:05.154Z,1005.80
2019-02-28T09:03:10.663Z,1005.76
2019-02-28T09:04:16.173Z,1005.75
2019-02-28T09:05:25.460Z,1005.74
2019-02-28T09:06:27.665Z,1005.78
2019-02-28T09:07:32.704Z,1005.78
2019-02-28T09:08:38.214Z,1005.79
2019-02-28T09:09:43.726Z,1005.81
2019-02-28T09:10:49.243Z,1005.84
2019-02-28T09:11:58.200Z,1005.82
2019-02-28T09:13:00.259Z,1005.77
2019-02-28T09:14:05.770Z,1005.81
2019-02-28T09:15:11.285Z,1005.80
2019-02-28T09:16:16.800Z,1005.77
2019-02-28T09:17:22.303Z,1005.79
2019-02-28T09:18:27.816Z,1005.78
2019-02-28T09:19:36.000Z,1005.79
2019-02-28T09:20:41.331Z,1005.78
2019-02-28T09:21:44.349Z,1005.81
2019-02-28T09:22:49.861Z,1005.83
2019-02-28T09:23:55.368Z,1005.90
2019-02-28T09:25:00.885Z,1005.86
2019-02-28T09:26:06.389Z,1005.89
2019-02-28T09:27:12.330Z,1005.91
2019-02-28T09:28:17.414Z,1005.90
2019-02-28T09:29:22.924Z,1005.89
2019-02-28T09:30:29.659Z,1005.91
2019-02-28T09:31:38.496Z,1005.95
2019-02-28T09:32:39.459Z,1005.95
2019-02-28T09:33:44.972Z,1005.91
2019-02-28T09:34:50.483Z,1005.89
2019-02-28T09:35:55.990Z,1005.93
2019-02-28T09:37:01.505Z,1005.93
2019-02-28T09:38:13.019Z,1005.88
2019-02-28T09:39:12.529Z,1005.87
2019-02-28T09:40:18.038Z,1005.84
2019-02-28T09:41:23.553Z,1005.85
2019-02-28T09:42:29.075Z,1005.93
2019-02-28T09:43:34.578Z,1005.91
2019-02-28T09:44:40.086Z,1005.89
2019-02-28T09:45:45.607Z,1005.92
2019-02-28T09:46:51.689Z,1005.88
2019-02-28T09:48:00.807Z,1005.92
2019-02-28T09:49:02.129Z,1005.87
2019-02-28T09:50:07.639Z,1005.94
2019-02-28T09:51:13.167Z,1005.91
2019-02-28T09:52:18.667Z,1005.90
2019-02-28T09:53:24.176Z,1005.84
2019-02-28T09:54:29.688Z,1005.83
2019-02-28T09:55:35.557Z,1005.79
2019-02-28T09:56:41.211Z,1005.73
2019-02-28T09:57:46.221Z,1005.73
2019-02-28T09:58:51.730Z,1005.72
2019-02-28T09:59:57.246Z,1005.75
2019-02-28T10:01:02.760Z,1005.78
2019-02-28T10:02:09.394Z,1005.74
2019-02-28T10:03:15.496Z,1005.75
2019-02-28T10:04:19.297Z,1005.75
2019-02-28T10:05:24.806Z,1005.76
2019-02-28T10:06:30.316Z,1005.73
2019-02-28T10:07:35.830Z,1005.67
2019-02-28T10:08:41.341Z,1005.66
2019-02-28T10:09:48.709Z,1005.68
2019-02-28T10:10:55.452Z,1005.61
2019-02-28T10:11:57.880Z,1005.63
2019-02-28T10:13:03.392Z,1005.69
2019-02-28T10:14:08.903Z,1005.72
2019-02-28T10:15:14.406Z,1005.69
2019-02-28T10:16:19.939Z,1005.69
2019-02-28T10:17:25.881Z,1005.68
2019-02-28T10:18:30.956Z,1005.64
2019-02-28T10:19:44.743Z,1005.64
2019-02-28T10:20:41.972Z,1005.61
2019-02-28T10:21:51.873Z,1005.67
2019-02-28T10:22:53.015Z,1005.66
2019-02-28T10:23:58.510Z,1005.71
2019-02-28T10:25:06.470Z,1005.72
2019-02-28T10:26:09.528Z,1005.75
2019-02-28T10:27:15.051Z,1005.78
2019-02-28T10:28:20.560Z,1005.81
2019-02-28T10:29:26.068Z,1005.82
2019-02-28T10:30:32.582Z,1005.75
2019-02-28T10:31:38.448Z,1005.72
2019-02-28T10:32:43.391Z,1005.70
2019-02-28T10:33:49.533Z,1005.74
2019-02-28T10:34:53.633Z,1005.75
2019-02-28T10:35:59.143Z,1005.78
2019-02-28T10:37:04.665Z,1005.76
2019-02-28T10:38:10.171Z,1005.75
2019-02-28T10:39:15.685Z,1005.80
2019-02-28T10:40:21.193Z,1005.78
2019-02-28T10:41:28.029Z,1005.77
2019-02-28T10:42:32.221Z,1005.83
2019-02-28T10:43:37.735Z,1005.81
2019-02-28T10:44:43.247Z,1005.85
2019-02-28T10:45:48.764Z,1005.79
2019-02-28T10:46:54.768Z,1005.81
2019-02-28T10:48:02.867Z,1005.76
2019-02-28T10:49:05.295Z,1005.74
2019-02-28T10:50:10.810Z,1005.78
2019-02-28T10:51:16.330Z,1005.73
2019-02-28T10:52:23.434Z,1005.66
2019-02-28T10:53:27.347Z,1005.69
2019-02-28T10:54:32.864Z,1005.67
2019-02-28T10:55:38.407Z,1005.57
2019-02-28T10:56:43.889Z,1005.55
2019-02-28T10:57:49.405Z,1005.59
2019-02-28T10:58:54.913Z,1005.54
2019-02-28T11:00:00.424Z,1005.53
2019-02-28T11:01:08.706Z,1005.57
2019-02-28T11:02:13.505Z,1005.55
2019-02-28T11:03:16.956Z,1005.55
2019-02-28T11:04:22.480Z,1005.59
2019-02-28T11:05:27.991Z,1005.56
2019-02-28T11:06:33.507Z,1005.56
2019-02-28T11:07:39.031Z,1005.56
2019-02-28T11:08:47.422Z,1005.64
2019-02-28T11:09:50.043Z,1005.63
2019-02-28T11:10:55.559Z,1005.60
2019-02-28T11:12:01.089Z,1005.58
2019-02-28T11:13:06.587Z,1005.59
2019-02-28T11:14:12.106Z,1005.54
2019-02-28T11:15:17.617Z,1005.60
2019-02-28T11:16:23.575Z,1005.64
2019-02-28T11:17:30.414Z,1005.64
2019-02-28T11:18:34.147Z,1005.65
2019-02-28T11:19:39.668Z,1005.69
2019-02-28T11:20:45.190Z,1005.67
2019-02-28T11:21:50.689Z,1005.69
2019-02-28T11:22:56.205Z,1005.72
2019-02-28T11:24:01.743Z,1005.66
2019-02-28T11:25:07.244Z,1005.64
2019-02-28T11:26:12.745Z,1005.74
2019-02-28T11:27:19.544Z,1005.72
2019-02-28T11:28:27.788Z,1005.78
2019-02-28T11:29:29.311Z,1005.69
2019-02-28T11:30:36.132Z,1005.70
2019-02-28T11:31:40.317Z,1005.63
2019-02-28T11:32:45.828Z,1005.66
2019-02-28T11:33:51.340Z,1005.65
2019-02-28T11:34:56.851Z,1005.68
2019-02-28T11:36:02.368Z,1005.71
2019-02-28T11:37:08.901Z,1005.71
2019-02-28T11:38:13.396Z,1005.74
2019-02-28T11:39:18.909Z,1005.70
2019-02-28T11:40:24.435Z,1005.81
2019-02-28T11:41:29.943Z,1005.68
2019-02-28T11:42:35.449Z,1005.70
2019-02-28T11:43:40.955Z,1005.65
2019-02-28T11:44:47.492Z,1005.65
2019-02-28T11:45:51.993Z,1005.64
2019-02-28T11:46:57.516Z,1005.65
2019-02-28T11:48:03.019Z,1005.65
2019-02-28T11:49:08.531Z,1005.69
2019-02-28T11:50:14.045Z,1005.72
2019-02-28T11:51:19.557Z,1005.67
2019-02-28T11:52:27.398Z,1005.71
2019-02-28T11:53:30.588Z,1005.72
2019-02-28T11:54:36.109Z,1005.74
2019-02-28T11:55:41.616Z,1005.71
2019-02-28T11:56:47.130Z,1005.66
2019-02-28T11:57:52.659Z,1005.61
2019-02-28T11:58:58.162Z,1005.60
2019-02-28T12:00:03.672Z,1005.56
2019-02-28T12:01:10.533Z,1005.59
2019-02-28T12:02:14.692Z,1005.52
2019-02-28T12:03:20.216Z,1005.51
2019-02-28T12:04:25.721Z,1005.49
2019-02-28T12:05:31.232Z,1005.44
2019-02-28T12:06:36.751Z,1005.49
2019-02-28T12:07:42.259Z,1005.45
2019-02-28T12:08:47.772Z,1005.43
2019-02-28T12:09:54.758Z,1005.38
2019-02-28T12:11:01.943Z,1005.43
2019-02-28T12:12:07.319Z,1005.40
2019-02-28T12:13:09.829Z,1005.42
2019-02-28T12:14:15.349Z,1005.44
2019-02-28T12:15:22.615Z,1005.41
2019-02-28T12:16:26.374Z,1005.41
2019-02-28T12:17:31.882Z,1005.34
2019-02-28T12:18:39.972Z,1005.35
2019-02-28T12:19:42.907Z,1005.35
2019-02-28T12:20:48.425Z,1005.29
2019-02-28T12:21:53.934Z,1005.32
2019-02-28T12:22:59.450Z,1005.28
2019-02-28T12:24:04.964Z,1005.25
2019-02-28T12:25:10.474Z,1005.19
2019-02-28T12:26:17.815Z,1005.16
2019-02-28T12:27:24.427Z,1005.18
2019-02-28T12:28:27.009Z,1005.20
2019-02-28T12:29:32.528Z,1005.26
2019-02-28T12:30:38.044Z,1005.24
2019-02-28T12:31:43.557Z,1005.23
2019-02-28T12:32:49.071Z,1005.24
2019-02-28T12:33:56.821Z,1005.27
2019-02-28T12:35:01.312Z,1005.26
2019-02-28T12:36:05.614Z,1005.25
2019-02-28T12:37:11.130Z,1005.31
2019-02-28T12:38:16.641Z,1005.29
2019-02-28T12:39:23.649Z,1005.28
2019-02-28T12:40:27.679Z,1005.31
2019-02-28T12:41:33.185Z,1005.28
2019-02-28T12:42:38.699Z,1005.29
2019-02-28T12:43:44.215Z,1005.23
2019-02-28T12:44:49.736Z,1005.27
2019-02-28T12:45:56.910Z,1005.26
2019-02-28T12:47:03.277Z,1005.19
2019-02-28T12:48:06.274Z,1005.18
2019-02-28T12:49:11.790Z,1005.25
2019-02-28T12:50:17.305Z,1005.28
2019-02-28T12:51:22.820Z,1005.26
2019-02-28T12:52:28.337Z,1005.27
2019-02-28T12:53:33.862Z,1005.23
2019-02-28T12:54:39.375Z,1005.30
2019-02-28T12:55:44.891Z,1005.32
2019-02-28T12:56:50.401Z,1005.21
2019-02-28T12:57:57.726Z,1005.22
2019-02-28T12:59:01.452Z,1005.26
2019-02-28T13:00:06.962Z,1005.23
2019-02-28T13:01:12.485Z,1005.22
2019-02-28T13:02:18.008Z,1005.27
2019-02-28T13:03:23.520Z,1005.27
2019-02-28T13:04:29.050Z,1005.26
2019-02-28T13:05:34.562Z,1005.25
2019-02-28T13:06:40.088Z,1005.27
2019-02-28T13:07:45.621Z,1005.25
2019-02-28T13:08:51.126Z,1005.26
2019-02-28T13:09:56.647Z,1005.15
2019-02-28T13:11:04.489Z,1005.13
2019-02-28T13:12:08.297Z,1005.15